Time;durP1;ratioP1;P1;durP2;ratioP2;P2;SDS_P1;SDS_P2;PMS_P1;PMS_P2;Temp;Humidity;BMP_temperature;BMP_pressure;BME280_temperature;BME280_humidity;BME280_pressure;Samples;Min_cycle;Max_cycle;Signal;HPM_P1;HPM_P2
2023/03/14 00:00:43;;;;;;;10.23;2.87;;;;;;;11.70;100.00;98879.72;5182324;28;20138;-76
2023/03/14 00:03:14;;;;;;;13.83;3.30;;;;;;;11.70;100.00;98895.47;5195565;28;20382;-77
2023/03/14 00:05:46;;;;;;;6.93;2.03;;;;;;;11.56;100.00;98885.47;5194659;28;20025;-77
2023/03/14 00:08:17;;;;;;;10.57;2.30;;;;;;;11.52;100.00;98877.06;5195337;28;20041;-77
2023/03/14 00:10:49;;;;;;;7.67;2.20;;;;;;;11.50;100.00;98871.16;5193536;28;20041;-76
2023/03/14 00:13:20;;;;;;;8.07;1.63;;;;;;;11.43;100.00;98872.72;5193356;28;20026;-77
2023/03/14 00:15:51;;;;;;;9.60;2.00;;;;;;;11.40;100.00;98883.50;5195660;28;20470;-77
2023/03/14 00:18:23;;;;;;;10.07;2.50;;;;;;;11.45;100.00;98895.19;5193220;28;20532;-76
2023/03/14 00:20:58;;;;;;;8.63;2.23;;;;;;;11.33;100.00;98897.16;5194379;28;20482;-76
2023/03/14 00:23:31;;;;;;;12.07;2.40;;;;;;;11.31;100.00;98899.09;5187573;28;20089;-77
2023/03/14 00:26:11;;;;;;;11.60;2.10;;;;;;;11.36;100.00;98904.75;5189668;28;20030;-76
2023/03/14 00:28:43;;;;;;;6.77;1.80;;;;;;;11.12;100.00;98895.59;5192034;28;20038;-76
2023/03/14 00:31:15;;;;;;;9.23;1.90;;;;;;;11.08;100.00;98902.09;5194539;28;20485;-77
2023/03/14 00:33:47;;;;;;;8.20;1.60;;;;;;;11.17;100.00;98917.94;5194712;28;20026;-77
2023/03/14 00:36:20;;;;;;;9.57;2.07;;;;;;;11.07;100.00;98897.84;5192203;28;20038;-76
2023/03/14 00:38:51;;;;;;;8.27;2.07;;;;;;;11.18;100.00;98927.44;5195382;28;20513;-77
2023/03/14 00:41:23;;;;;;;11.27;2.67;;;;;;;11.18;100.00;98924.81;5193404;28;20022;-76
2023/03/14 00:43:54;;;;;;;9.10;2.37;;;;;;;11.05;100.00;98905.00;5195006;28;20080;-77
2023/03/14 00:46:26;;;;;;;9.33;2.00;;;;;;;11.12;100.00;98913.94;5194052;28;20069;-77
2023/03/14 00:48:57;;;;;;;5.33;1.87;;;;;;;11.15;100.00;98925.13;5193298;28;20034;-77
2023/03/14 00:51:28;;;;;;;6.43;2.07;;;;;;;11.11;100.00;98930.66;5188969;28;20092;-77
2023/03/14 00:54:00;;;;;;;8.47;1.87;;;;;;;11.03;100.00;98920.03;5194196;28;20033;-77
2023/03/14 00:56:31;;;;;;;8.63;2.00;;;;;;;10.99;100.00;98908.22;5194795;28;20101;-77
2023/03/14 00:59:02;;;;;;;8.27;2.10;;;;;;;11.08;100.00;98922.25;5193011;28;20060;-76
2023/03/14 01:01:34;;;;;;;6.70;1.43;;;;;;;11.01;100.00;98917.56;5194292;28;20050;-76
2023/03/14 01:04:06;;;;;;;8.60;2.57;;;;;;;11.05;100.00;98912.84;5176502;28;20022;-76
2023/03/14 01:06:38;;;;;;;10.13;2.00;;;;;;;11.08;100.00;98912.56;5184263;28;20557;-77
2023/03/14 01:09:10;;;;;;;5.00;1.43;;;;;;;11.06;100.00;98919.78;5189979;28;20019;-76
2023/03/14 01:11:42;;;;;;;10.93;3.40;;;;;;;11.07;100.00;98918.78;5192647;28;20425;-77
2023/03/14 01:14:13;;;;;;;10.27;1.50;;;;;;;10.98;100.00;98915.22;5194278;28;20814;-77
2023/03/14 01:16:44;;;;;;;6.60;1.83;;;;;;;11.02;100.00;98918.38;5194390;28;20030;-76
2023/03/14 01:19:16;;;;;;;9.53;2.03;;;;;;;10.84;100.00;98897.38;5189766;28;20394;-76
2023/03/14 01:21:48;;;;;;;7.83;1.87;;;;;;;10.86;100.00;98885.75;5189807;28;20168;-76
2023/03/14 01:24:20;;;;;;;7.60;2.00;;;;;;;10.73;100.00;98874.78;5193165;28;20137;-76
2023/03/14 01:26:51;;;;;;;9.80;1.90;;;;;;;10.86;100.00;98892.78;5193990;28;20114;-76
2023/03/14 01:29:23;;;;;;;6.63;1.50;;;;;;;10.95;100.00;98907.66;5176216;28;20034;-76
2023/03/14 01:31:54;;;;;;;6.03;1.50;;;;;;;10.79;100.00;98871.59;5193598;28;20475;-76
2023/03/14 01:34:25;;;;;;;5.07;1.73;;;;;;;10.75;100.00;98871.03;5193697;28;20053;-76
2023/03/14 01:36:57;;;;;;;6.93;1.80;;;;;;;10.85;100.00;98889.38;5191780;28;20042;-76
2023/03/14 01:39:28;;;;;;;7.10;1.63;;;;;;;10.95;100.00;98893.72;5185638;28;20092;-76
2023/03/14 01:42:00;;;;;;;8.60;1.43;;;;;;;10.93;100.00;98891.25;5187872;28;20037;-76
2023/03/14 01:44:55;;;;;;;7.83;1.63;;;;;;;10.98;100.00;98883.78;5193921;28;20065;-77
2023/03/14 01:47:27;;;;;;;8.25;1.88;;;;;;;10.70;100.00;98847.06;5190776;28;20422;-76
2023/03/14 01:50:06;;;;;;;5.87;1.37;;;;;;;10.94;100.00;98877.22;5193505;28;20040;-76
2023/03/14 01:52:46;;;;;;;10.63;2.27;;;;;;;10.83;100.00;98861.66;5181191;28;20487;-76
2023/03/14 01:55:24;;;;;;;4.93;1.50;;;;;;;10.85;100.00;98857.94;5193451;28;20026;-76
2023/03/14 01:58:02;;;;;;;6.57;1.73;;;;;;;10.80;100.00;98865.41;5193037;28;20057;-76
2023/03/14 02:00:34;;;;;;;7.37;1.60;;;;;;;10.76;100.00;98864.03;5186502;28;20135;-74
2023/03/14 02:03:11;;;;;;;7.37;2.40;;;;;;;10.80;100.00;98869.81;5190818;28;20553;-76
2023/03/14 02:05:43;;;;;;;6.50;1.77;;;;;;;10.72;100.00;98860.03;5192157;28;20176;-77
2023/03/14 02:08:18;;;;;;;8.10;1.93;;;;;;;10.75;100.00;98854.53;5174318;28;20026;-77
2023/03/14 02:10:50;;;;;;;8.13;2.20;;;;;;;10.77;100.00;98860.41;5189524;28;20447;-78
2023/03/14 02:13:22;;;;;;;9.90;2.50;;;;;;;10.71;100.00;98847.91;5193025;28;20045;-77
2023/03/14 02:15:53;;;;;;;9.13;2.47;;;;;;;10.65;100.00;98846.69;5187228;28;20113;-78
2023/03/14 02:18:25;;;;;;;6.83;2.00;;;;;;;10.61;100.00;98838.28;5173683;28;20617;-77
2023/03/14 02:21:02;;;;;;;8.43;2.23;;;;;;;10.71;100.00;98855.75;5180457;28;20041;-78
2023/03/14 02:24:05;;;;;;;11.03;2.90;;;;;;;10.60;100.00;98839.25;5192772;28;20029;-77
2023/03/14 02:27:00;;;;;;;9.73;2.73;;;;;;;10.70;100.00;98861.97;5193471;28;20489;-77
2023/03/14 02:29:36;;;;;;;12.73;3.43;;;;;;;10.67;100.00;98864.88;5186766;28;20030;-78
2023/03/14 02:32:07;;;;;;;11.47;2.20;;;;;;;10.55;100.00;98844.09;5192479;28;20093;-78
2023/03/14 02:34:40;;;;;;;12.70;2.93;;;;;;;10.61;100.00;98846.13;5192881;28;20034;-77
2023/03/14 02:37:14;;;;;;;9.43;2.40;;;;;;;10.64;100.00;98838.03;5191944;28;20500;-76
2023/03/14 02:39:48;;;;;;;8.50;2.47;;;;;;;10.61;100.00;98835.66;5193021;28;20030;-77
2023/03/14 02:42:21;;;;;;;10.77;2.60;;;;;;;10.56;100.00;98832.66;5191511;28;20040;-76
2023/03/14 02:45:13;;;;;;;9.13;2.40;;;;;;;10.59;100.00;98837.63;5192757;28;20030;-76
2023/03/14 02:47:51;;;;;;;12.67;2.67;;;;;;;10.56;100.00;98840.50;5178188;28;20510;-77
2023/03/14 02:50:27;;;;;;;11.73;2.80;;;;;;;10.48;100.00;98825.53;5171498;28;20125;-77
2023/03/14 02:52:59;;;;;;;11.50;2.57;;;;;;;10.41;100.00;98814.75;5191403;28;20027;-77
2023/03/14 02:55:30;;;;;;;11.27;3.10;;;;;;;10.16;100.00;98782.16;5192882;28;20382;-76
2023/03/14 02:58:02;;;;;;;10.90;3.27;;;;;;;10.48;100.00;98841.22;5187794;28;20130;-76
2023/03/14 03:00:33;;;;;;;8.63;2.80;;;;;;;10.46;100.00;98823.97;5184383;28;20517;-76
2023/03/14 03:03:05;;;;;;;11.83;2.60;;;;;;;10.53;100.00;98848.66;5192508;28;20042;-77
2023/03/14 03:05:37;;;;;;;12.57;2.60;;;;;;;10.37;100.00;98826.47;5174875;28;20089;-77
2023/03/14 03:08:08;;;;;;;11.47;2.83;;;;;;;10.50;100.00;98848.94;5178309;28;20023;-77
2023/03/14 03:10:40;;;;;;;16.30;3.03;;;;;;;10.28;100.00;98807.19;5192902;28;20438;-77
2023/03/14 03:13:11;;;;;;;12.13;2.57;;;;;;;10.40;100.00;98834.03;5192177;28;20030;-77
2023/03/14 03:15:43;;;;;;;10.97;3.10;;;;;;;10.51;100.00;98846.16;5192118;28;20026;-77
2023/03/14 03:18:15;;;;;;;9.50;2.37;;;;;;;10.44;100.00;98839.00;5192413;28;20086;-77
2023/03/14 03:20:46;;;;;;;9.33;2.63;;;;;;;10.26;100.00;98811.75;5191635;28;20048;-77
2023/03/14 03:23:18;;;;;;;10.80;1.90;;;;;;;10.33;100.00;98800.72;5174756;28;20118;-76
2023/03/14 03:25:51;;;;;;;12.97;2.80;;;;;;;10.44;100.00;98818.06;5192330;28;20026;-76
2023/03/14 03:28:22;;;;;;;12.13;2.87;;;;;;;10.36;100.00;98806.50;5174676;28;20014;-76
2023/03/14 03:30:54;;;;;;;9.30;2.43;;;;;;;10.48;100.00;98825.53;5192225;28;20073;-76
2023/03/14 03:33:25;;;;;;;10.47;2.23;;;;;;;10.50;100.00;98835.84;5191456;28;20037;-76
2023/03/14 03:35:56;;;;;;;9.10;2.17;;;;;;;10.49;100.00;98834.22;5191222;28;20426;-76
2023/03/14 03:38:28;;;;;;;11.17;3.07;;;;;;;10.36;100.00;98816.97;5192253;28;20031;-76
2023/03/14 03:41:03;;;;;;;7.33;2.50;;;;;;;10.48;100.00;98830.75;5192324;28;20736;-76
2023/03/14 03:43:34;;;;;;;8.23;2.70;;;;;;;10.17;100.00;98786.44;5192340;28;20037;-76
2023/03/14 03:46:07;;;;;;;9.60;2.30;;;;;;;10.39;100.00;98811.47;5177350;28;20580;-76
2023/03/14 03:48:39;;;;;;;9.40;2.53;;;;;;;10.25;100.00;98793.56;5195869;28;20125;-76
2023/03/14 03:51:13;;;;;;;10.93;2.43;;;;;;;10.41;100.00;98813.94;5194231;28;20100;-76
2023/03/14 03:53:44;;;;;;;;;;;;;;;10.57;100.00;98818.63;5196598;28;20117;-76
2023/03/14 03:56:16;;;;;;;6.43;1.80;;;;;;;10.34;100.00;98812.84;5195186;28;20324;-77
2023/03/14 03:58:48;;;;;;;8.63;1.43;;;;;;;10.31;100.00;98798.25;5195979;28;20044;-76
2023/03/14 04:01:19;;;;;;;11.50;2.27;;;;;;;10.34;100.00;98812.84;5195689;28;20490;-77
2023/03/14 04:03:50;;;;;;;10.03;2.47;;;;;;;10.34;100.00;98813.66;5195691;28;20031;-77
2023/03/14 04:06:23;;;;;;;7.47;1.80;;;;;;;10.29;100.00;98810.66;5193822;28;20104;-77
2023/03/14 04:08:54;;;;;;;6.23;1.87;;;;;;;10.27;100.00;98809.97;5195261;28;20054;-77
2023/03/14 04:11:25;;;;;;;5.20;1.67;;;;;;;10.28;100.00;98816.88;5194573;28;20498;-77
2023/03/14 04:13:57;;;;;;;8.27;2.37;;;;;;;10.15;100.00;98798.81;5195003;28;20038;-77
2023/03/14 04:16:29;;;;;;;8.50;1.60;;;;;;;10.17;100.00;98810.78;5195143;28;20176;-77
2023/03/14 04:19:03;;;;;;;7.67;2.63;;;;;;;10.11;100.00;98803.50;5190782;28;20038;-77
2023/03/14 04:21:34;;;;;;;7.63;2.50;;;;;;;10.07;100.00;98803.94;5192083;28;20047;-76
2023/03/14 04:24:06;;;;;;;7.27;2.27;;;;;;;10.17;100.00;98812.59;5183998;28;20122;-77
2023/03/14 04:26:37;;;;;;;5.80;1.97;;;;;;;10.10;100.00;98801.88;5195027;28;20038;-77
2023/03/14 04:29:08;;;;;;;7.63;2.07;;;;;;;10.14;100.00;98808.47;5194635;28;20030;-77
2023/03/14 04:31:40;;;;;;;6.60;1.70;;;;;;;10.09;100.00;98805.44;5177660;28;20038;-77
2023/03/14 04:34:11;;;;;;;4.93;2.00;;;;;;;10.03;100.00;98801.59;5194313;28;20034;-76
2023/03/14 04:36:43;;;;;;;4.97;1.47;;;;;;;10.08;100.00;98803.78;5194572;28;20118;-76
2023/03/14 04:39:14;;;;;;;7.90;1.30;;;;;;;10.00;100.00;98780.13;5194329;28;20112;-76
2023/03/14 04:41:45;;;;;;;6.83;2.00;;;;;;;10.06;100.00;98800.50;5195251;28;20038;-77
2023/03/14 04:44:17;;;;;;;7.97;1.77;;;;;;;9.94;100.00;98773.66;5193773;28;20042;-76
2023/03/14 04:46:48;;;;;;;5.07;1.27;;;;;;;9.83;100.00;98768.59;5195310;28;20069;-76
2023/03/14 04:49:20;;;;;;;5.33;1.40;;;;;;;9.97;100.00;98790.84;5193758;28;20565;-77
2023/03/14 04:51:51;;;;;;;2.83;1.00;;;;;;;9.96;100.00;98794.44;5193532;28;20042;-77
2023/03/14 04:54:22;;;;;;;3.47;1.17;;;;;;;9.83;100.00;98785.09;5176168;28;20449;-77
2023/03/14 04:56:54;;;;;;;4.67;1.40;;;;;;;9.72;100.00;98766.94;5193345;28;20045;-77
2023/03/14 04:59:25;;;;;;;4.43;1.20;;;;;;;9.86;100.00;98810.94;5194334;28;20557;-77
2023/03/14 05:01:56;;;;;;;5.67;1.37;;;;;;;9.67;100.00;98804.75;5193743;28;20051;-77
2023/03/14 05:04:29;;;;;;;4.53;1.37;;;;;;;9.76;100.00;98805.72;5194083;28;20019;-77
2023/03/14 05:07:00;;;;;;;4.47;1.90;;;;;;;9.34;100.00;98749.31;5193067;28;20114;-77
2023/03/14 05:09:32;;;;;;;5.00;1.30;;;;;;;9.43;100.00;98758.94;5194111;28;20547;-76
2023/03/14 05:12:04;;;;;;;7.10;1.83;;;;;;;9.52;100.00;98772.16;5194453;28;20382;-76
2023/03/14 05:14:35;;;;;;;2.93;0.87;;;;;;;9.71;100.00;98801.88;5171797;28;20454;-76
2023/03/14 05:17:07;;;;;;;5.00;1.73;;;;;;;9.44;100.00;98772.84;5194605;28;20042;-76
2023/03/14 05:19:38;;;;;;;4.50;1.43;;;;;;;9.58;100.00;98789.91;5181418;28;20045;-76
2023/03/14 05:22:10;;;;;;;2.73;1.30;;;;;;;9.63;100.00;98799.94;5194177;28;20467;-77
2023/03/14 05:24:41;;;;;;;5.87;1.33;;;;;;;9.44;100.00;98781.50;5194385;28;20034;-76
2023/03/14 05:27:13;;;;;;;8.53;2.03;;;;;;;9.50;100.00;98787.13;5186869;28;20065;-77
2023/03/14 05:29:44;;;;;;;6.67;1.80;;;;;;;9.23;100.00;98742.44;5194331;28;20030;-77
2023/03/14 05:32:16;;;;;;;4.07;1.50;;;;;;;9.12;100.00;98719.03;5193625;28;20041;-77
2023/03/14 05:34:49;;;;;;;4.27;1.80;;;;;;;9.55;100.00;98770.09;5192965;28;20117;-77
2023/03/14 05:37:21;;;;;;;5.25;2.15;;;;;;;9.33;100.00;98755.50;5194022;28;20022;-77
2023/03/14 05:39:52;;;;;;;5.57;2.23;;;;;;;9.39;100.00;98754.13;5193329;28;20041;-78
2023/03/14 05:42:23;;;;;;;5.27;2.00;;;;;;;9.42;100.00;98766.94;5189629;28;20507;-77
2023/03/14 05:44:55;;;;;;;4.67;1.57;;;;;;;9.49;100.00;98773.25;5176188;28;20076;-77
2023/03/14 05:47:26;;;;;;;6.63;2.03;;;;;;;9.48;100.00;98773.41;5192778;28;20138;-78
2023/03/14 05:49:57;;;;;;;6.07;2.63;;;;;;;9.51;100.00;98775.75;5192697;28;20077;-77
2023/03/14 05:52:29;;;;;;;7.07;1.80;;;;;;;9.27;100.00;98729.91;5193596;28;20049;-77
2023/03/14 05:55:00;;;;;;;3.97;1.80;;;;;;;9.37;100.00;98746.44;5193607;28;20034;-76
2023/03/14 05:57:31;;;;;;;6.57;2.40;;;;;;;9.42;100.00;98765.16;5192666;28;20022;-77
2023/03/14 06:00:03;;;;;;;7.03;2.67;;;;;;;9.46;100.00;98759.63;5175858;28;20105;-77
2023/03/14 06:02:35;;;;;;;5.67;2.00;;;;;;;9.51;100.00;98770.50;5193152;28;20455;-77
2023/03/14 06:05:07;;;;;;;6.93;2.33;;;;;;;9.24;100.00;98722.34;5192074;28;20022;-77
2023/03/14 06:07:38;;;;;;;8.43;2.80;;;;;;;9.35;100.00;98744.91;5191935;28;20026;-77
2023/03/14 06:10:10;;;;;;;7.83;2.27;;;;;;;9.41;100.00;98747.81;5185040;28;20038;-77
2023/03/14 06:12:41;;;;;;;5.63;2.10;;;;;;;9.22;100.00;98745.16;5193508;28;20366;-77
2023/03/14 06:15:12;;;;;;;7.03;2.60;;;;;;;9.44;100.00;98765.81;5192242;28;20026;-77
2023/03/14 06:17:44;;;;;;;6.07;2.30;;;;;;;9.27;100.00;98732.50;5180917;28;20529;-77
2023/03/14 06:20:15;;;;;;;7.23;2.30;;;;;;;9.46;100.00;98762.25;5190776;28;20030;-77
2023/03/14 06:22:47;;;;;;;4.60;2.17;;;;;;;9.29;100.00;98735.81;5181196;28;20187;-77
2023/03/14 06:25:18;;;;;;;6.87;2.53;;;;;;;9.47;100.00;98774.34;5190227;28;20104;-78
2023/03/14 06:27:55;;;;;;;6.87;2.53;;;;;;;9.48;100.00;98770.78;5193020;28;20030;-77
2023/03/14 06:30:27;;;;;;;6.83;3.13;;;;;;;9.42;100.00;98759.91;5191895;28;20026;-77
2023/03/14 06:32:58;;;;;;;6.90;2.63;;;;;;;9.44;100.00;98765.00;5192385;28;20087;-77
2023/03/14 06:35:29;;;;;;;5.90;2.77;;;;;;;9.48;100.00;98776.03;5190570;28;20093;-78
2023/03/14 06:38:01;;;;;;;6.60;2.80;;;;;;;9.46;100.00;98770.09;5191334;28;20040;-78
2023/03/14 06:40:32;;;;;;;4.20;2.57;;;;;;;9.43;100.00;98768.56;5190762;28;20022;-78
2023/03/14 06:43:03;;;;;;;5.53;3.27;;;;;;;9.37;100.00;98764.72;5191202;28;20236;-78
2023/03/14 06:45:35;;;;;;;9.50;3.70;;;;;;;9.46;100.00;98783.16;5189496;28;20037;-78
2023/03/14 06:48:06;;;;;;;4.80;2.80;;;;;;;9.44;100.00;98776.25;5191256;28;20030;-78
2023/03/14 06:50:37;;;;;;;8.43;3.93;;;;;;;9.41;100.00;98773.94;5190026;28;20033;-77
2023/03/14 06:53:09;;;;;;;7.23;3.07;;;;;;;9.50;100.00;98784.53;5191102;28;20037;-78
2023/03/14 06:55:40;;;;;;;7.23;3.10;;;;;;;9.54;100.00;98785.91;5190731;28;20505;-77
2023/03/14 06:58:12;;;;;;;6.03;2.60;;;;;;;9.55;100.00;98787.56;5191778;28;20030;-77
2023/03/14 07:00:43;;;;;;;6.50;2.83;;;;;;;9.59;100.00;98793.34;5189824;28;20050;-78
2023/03/14 07:03:14;;;;;;;6.83;3.60;;;;;;;9.58;100.00;98794.31;5190721;28;20030;-77
2023/03/14 07:05:46;;;;;;;5.83;3.00;;;;;;;9.52;100.00;98788.66;5190174;28;20050;-77
2023/03/14 07:08:17;;;;;;;6.83;3.13;;;;;;;9.35;100.00;98771.88;5190877;28;20065;-77
2023/03/14 07:10:48;;;;;;;7.73;3.37;;;;;;;9.51;100.00;98796.66;5190757;28;20035;-77
2023/03/14 07:13:20;;;;;;;5.50;3.60;;;;;;;9.51;100.00;98802.66;5188905;28;20126;-78
2023/03/14 07:15:51;;;;;;;5.90;3.67;;;;;;;9.57;100.00;98806.53;5190288;28;20113;-77
2023/03/14 07:18:22;;;;;;;5.60;3.50;;;;;;;9.52;100.00;98808.72;5189652;28;20022;-77
2023/03/14 07:20:54;;;;;;;6.77;3.43;;;;;;;9.58;100.00;98823.06;5184686;28;20022;-77
2023/03/14 07:23:25;;;;;;;8.20;3.50;;;;;;;9.43;100.00;98810.38;5193918;28;20719;-77
2023/03/14 07:25:56;;;;;;;5.23;3.20;;;;;;;9.44;100.00;98825.91;5193192;28;20412;-76
2023/03/14 07:28:28;;;;;;;7.00;3.47;;;;;;;9.25;100.00;98812.81;5193645;28;20552;-77
2023/03/14 07:30:59;;;;;;;7.27;3.07;;;;;;;9.41;100.00;98886.28;5193168;28;20054;-77
2023/03/14 07:33:30;;;;;;;2.57;1.80;;;;;;;9.04;100.00;98902.50;5194687;28;20022;-78
2023/03/14 07:36:03;;;;;;;2.33;1.17;;;;;;;9.10;100.00;98940.31;5193360;28;20018;-78
2023/03/14 07:38:34;;;;;;;3.63;1.33;;;;;;;8.95;100.00;98946.69;5194190;28;20034;-78
2023/03/14 07:41:06;;;;;;;2.17;1.10;;;;;;;8.94;100.00;98959.88;5193169;28;20034;-78
2023/03/14 07:43:37;;;;;;;3.13;1.10;;;;;;;8.57;100.00;98963.78;5194029;28;20026;-78
2023/03/14 07:46:09;;;;;;;2.20;1.10;;;;;;;8.77;100.00;98966.50;5193343;28;20030;-78
2023/03/14 07:48:41;;;;;;;1.13;0.90;;;;;;;8.76;100.00;98975.31;5193651;28;20026;-78
2023/03/14 07:51:12;;;;;;;2.53;0.97;;;;;;;8.58;100.00;98978.47;5192293;28;20544;-77
2023/03/14 07:53:43;;;;;;;2.63;1.17;;;;;;;8.31;100.00;98993.56;5193802;28;20550;-78
2023/03/14 07:56:15;;;;;;;2.80;1.07;;;;;;;8.32;100.00;99020.50;5193947;28;20097;-78
2023/03/14 07:58:46;;;;;;;4.63;1.10;;;;;;;8.41;100.00;98998.06;5192410;28;20030;-78
2023/03/14 08:01:17;;;;;;;4.37;0.87;;;;;;;8.29;100.00;99007.72;5193174;28;20430;-77
2023/03/14 08:03:48;;;;;;;5.27;1.10;;;;;;;8.45;100.00;99041.19;5193572;28;20022;-77
2023/03/14 08:06:20;;;;;;;2.23;0.93;;;;;;;8.48;100.00;99038.38;5193313;28;20413;-78
2023/03/14 08:08:51;;;;;;;3.00;1.77;;;;;;;8.44;100.00;99045.59;5194260;28;20108;-77
2023/03/14 08:11:22;;;;;;;2.57;1.30;;;;;;;8.58;100.00;99057.59;5193746;28;20529;-77
2023/03/14 08:13:54;;;;;;;3.20;1.50;;;;;;;8.55;100.00;99054.34;5193284;28;20034;-77
2023/03/14 08:16:25;;;;;;;3.83;1.40;;;;;;;8.61;100.00;99071.31;5193571;28;20022;-77
2023/03/14 08:18:57;;;;;;;3.93;1.33;;;;;;;8.32;100.00;99083.94;5193677;28;20382;-78
2023/03/14 08:21:31;;;;;;;2.47;1.00;;;;;;;8.48;100.00;99088.75;5194745;28;20105;-79
2023/03/14 08:24:03;;;;;;;2.25;0.80;;;;;;;8.14;100.00;99078.38;5194195;28;20065;-77
2023/03/14 08:26:37;;;;;;;9.83;1.70;;;;;;;7.98;100.00;99061.31;5194295;28;20117;-78
2023/03/14 08:29:08;;;;;;;2.45;0.90;;;;;;;8.22;100.00;99086.41;5177006;28;20038;-78
2023/03/14 08:31:45;;;;;;;1.07;0.73;;;;;;;8.31;100.00;99128.38;5194478;28;20054;-80
2023/03/14 08:34:16;;;;;;;3.13;1.07;;;;;;;8.03;100.00;99133.16;5192922;28;20054;-76
2023/03/14 08:36:47;;;;;;;2.87;0.70;;;;;;;8.22;100.00;99149.00;5193177;28;20069;-77
2023/03/14 08:39:19;;;;;;;4.33;1.43;;;;;;;8.39;100.00;99162.53;5193530;28;20401;-76
2023/03/14 08:41:50;;;;;;;4.37;1.07;;;;;;;8.50;100.00;99179.13;5193714;28;20109;-77
2023/03/14 08:44:21;;;;;;;5.57;1.23;;;;;;;8.30;100.00;99173.66;5193529;28;20343;-76
2023/03/14 08:46:53;;;;;;;3.03;1.23;;;;;;;8.30;100.00;99178.88;5193850;28;20037;-77
2023/03/14 08:49:24;;;;;;;4.27;1.40;;;;;;;8.44;100.00;99198.69;5166200;28;20022;-75
2023/03/14 08:51:55;;;;;;;2.77;1.50;;;;;;;8.47;100.00;99217.56;5176650;28;20015;-77
2023/03/14 08:54:27;;;;;;;3.63;1.20;;;;;;;8.43;100.00;99212.69;5192813;28;20477;-77
2023/03/14 08:56:59;;;;;;;5.13;2.20;;;;;;;8.42;100.00;99208.41;5182055;28;20034;-76
2023/03/14 08:59:59;;;;;;;5.47;1.50;;;;;;;8.41;100.00;99210.19;5189874;28;20041;-77
2023/03/14 09:02:30;;;;;;;5.47;1.70;;;;;;;8.52;100.00;99245.09;5166935;28;20526;-76
2023/03/14 09:05:02;;;;;;;6.00;1.30;;;;;;;8.39;100.00;99246.03;5171985;28;20046;-76
2023/03/14 09:07:33;;;;;;;5.53;1.63;;;;;;;8.26;100.00;99242.66;5166999;28;20189;-78
2023/03/14 09:10:07;;;;;;;8.40;2.57;;;;;;;8.19;100.00;99227.50;5155904;28;20525;-76
2023/03/14 09:12:38;;;;;;;4.97;1.50;;;;;;;8.45;100.00;99266.41;5151974;28;20093;-76
2023/03/14 09:15:10;;;;;;;4.37;1.57;;;;;;;8.20;100.00;99247.41;5172791;28;20023;-77
2023/03/14 09:17:43;;;;;;;3.77;1.50;;;;;;;8.57;100.00;99289.94;5155764;28;20404;-76
2023/03/14 09:20:14;;;;;;;4.70;1.43;;;;;;;8.63;100.00;99294.69;5172556;28;20022;-76
2023/03/14 09:22:46;;;;;;;3.70;1.57;;;;;;;8.70;100.00;99289.81;5172538;28;20390;-77
2023/03/14 09:25:17;;;;;;;5.30;1.80;;;;;;;8.64;100.00;99290.31;5165871;28;20031;-76
2023/03/14 09:27:48;;;;;;;7.30;1.70;;;;;;;8.71;100.00;99322.78;5170003;28;20030;-77
2023/03/14 09:30:20;;;;;;;4.63;1.57;;;;;;;8.78;100.00;99324.00;5164296;28;20054;-77
2023/03/14 09:32:51;;;;;;;5.83;1.43;;;;;;;8.53;100.00;99322.41;5173762;28;20030;-78
2023/03/14 09:35:23;;;;;;;6.10;1.43;;;;;;;8.39;100.00;99337.31;5170476;28;20022;-78
2023/03/14 09:37:54;;;;;;;3.60;1.77;;;;;;;8.45;100.00;99364.72;5172249;28;20450;-78
2023/03/14 09:40:33;;;;;;;6.87;1.50;;;;;;;8.32;100.00;99380.47;5169667;28;20344;-78
2023/03/14 09:43:05;;;;;;;2.07;0.50;;;;;;;8.04;100.00;99413.78;5171208;28;20054;-78
2023/03/14 09:45:40;;;;;;;1.40;0.77;;;;;;;8.14;100.00;99417.38;5171369;28;20058;-77
2023/03/14 09:48:19;;;;;;;2.40;0.70;;;;;;;7.99;100.00;99435.78;5171625;28;20057;-77
2023/03/14 09:50:56;;;;;;;2.60;0.60;;;;;;;7.89;100.00;99458.25;5170728;28;20054;-77
2023/03/14 09:53:42;;;;;;;2.73;0.47;;;;;;;7.78;100.00;99476.44;5171865;28;20085;-76
2023/03/14 09:56:24;;;;;;;1.23;0.40;;;;;;;7.76;100.00;99471.31;5153687;28;20062;-77
2023/03/14 09:59:00;;;;;;;4.23;0.63;;;;;;;7.77;100.00;99501.66;5171341;28;20033;-76
2023/03/14 10:01:33;;;;;;;3.37;0.97;;;;;;;7.69;100.00;99506.56;5176708;28;20054;-77
2023/03/14 10:04:13;;;;;;;3.27;0.73;;;;;;;7.73;100.00;99506.25;5152124;28;20252;-77
2023/03/14 10:06:44;;;;;;;2.13;0.57;;;;;;;7.66;100.00;99517.22;5171784;28;20030;-77
2023/03/14 10:09:25;;;;;;;5.00;0.93;;;;;;;8.17;100.00;99544.13;5173115;28;21441;-76
2023/03/14 10:11:59;;;;;;;3.83;0.87;;;;;;;7.98;100.00;99546.25;5181394;28;20065;-77
2023/03/14 10:14:32;;;;;;;;;;;;;;;8.38;100.00;99567.84;5175190;28;20080;-76
2023/03/14 10:17:12;;;;;;;5.53;1.40;;;;;;;8.28;100.00;99567.66;5171114;28;19917;-76
2023/03/14 10:19:59;;;;;;;6.07;1.37;;;;;;;8.25;100.00;99593.13;5170014;28;20109;-76
2023/03/14 10:22:31;;;;;;;4.77;1.20;;;;;;;8.03;100.00;99603.28;5171437;28;20053;-77
2023/03/14 10:25:07;;;;;;;6.27;1.40;;;;;;;8.26;100.00;99621.72;5170235;28;20426;-76
2023/03/14 10:27:38;;;;;;;5.80;1.33;;;;;;;8.06;100.00;99610.06;5163779;28;20056;-76
2023/03/14 10:30:27;;;;;;;5.97;0.90;;;;;;;8.17;100.00;99636.22;5190411;28;20026;-76
2023/03/14 10:33:08;;;;;;;12.10;1.57;;;;;;;8.20;100.00;99654.25;5190967;28;20034;-76
2023/03/14 10:35:40;;;;;;;5.60;1.80;;;;;;;8.03;100.00;99641.56;5172445;28;20046;-76
2023/03/14 10:38:17;;;;;;;6.50;1.57;;;;;;;8.17;100.00;99657.09;5190231;28;20026;-77
2023/03/14 10:40:51;;;;;;;4.80;0.90;;;;;;;8.22;100.00;99670.66;5191023;28;20109;-77
2023/03/14 10:43:26;;;;;;;9.10;1.92;;;;;;;8.17;100.00;99675.34;5190686;28;20029;-76
2023/03/14 10:46:16;;;;;;;9.23;2.43;;;;;;;8.20;100.00;99692.56;5177551;28;20094;-76
2023/03/14 10:48:49;;;;;;;15.07;2.47;;;;;;;8.09;100.00;99708.94;5189914;28;20023;-78
2023/03/14 10:51:29;;;;;;;8.90;3.03;;;;;;;8.07;100.00;99698.63;5190399;28;20034;-76
2023/03/14 10:54:11;;;;;;;10.57;2.60;;;;;;;7.86;100.00;99724.34;5173755;28;20386;-76
2023/03/14 10:56:42;;;;;;;15.37;3.17;;;;;;;8.07;100.00;99742.09;5194426;28;20026;-77
2023/03/14 10:59:15;;;;;;;9.37;2.60;;;;;;;7.92;100.00;99739.59;5192207;28;20501;-76
2023/03/14 11:01:57;;;;;;;8.43;2.30;;;;;;;7.79;100.00;99759.59;5194896;28;20078;-76
2023/03/14 11:05:08;;;;;;;11.30;1.90;;;;;;;7.88;100.00;99782.44;5176160;28;20234;-76
2023/03/14 11:07:41;;;;;;;12.17;2.50;;;;;;;7.63;100.00;99771.00;5194457;28;20498;-76
2023/03/14 11:10:34;;;;;;;10.03;3.00;;;;;;;7.81;100.00;99794.22;5194728;28;20393;-77
2023/03/14 11:13:18;;;;;;;8.87;2.53;;;;;;;7.89;100.00;99797.16;5163072;28;20022;-76
2023/03/14 11:16:39;;;;;;;11.83;2.70;;;;;;;7.96;100.00;99814.06;5195251;28;20037;-77
2023/03/14 11:19:13;;;;;;;12.33;3.13;;;;;;;7.96;100.00;99819.28;5120518;29;20291;-76
2023/03/14 11:22:09;;;;;;;11.10;2.13;;;;;;;7.82;100.00;99828.00;5185911;28;20508;-77
2023/03/14 11:25:13;;;;;;;11.23;2.63;;;;;;;7.93;100.00;99836.88;5163744;28;20070;-77
2023/03/14 11:27:52;;;;;;;15.13;3.30;;;;;;;7.89;100.00;99854.50;5194588;28;20032;-77
2023/03/14 11:30:35;;;;;;;13.33;3.47;;;;;;;7.69;100.00;99851.44;5194496;28;20026;-77
2023/03/14 11:33:19;;;;;;;12.77;3.23;;;;;;;7.88;100.00;99858.06;5194479;28;20107;-77
2023/03/14 11:36:07;;;;;;;15.18;2.72;;;;;;;7.94;100.00;99881.13;5169990;28;20479;-76
2023/03/14 11:38:47;;;;;;;11.90;2.33;;;;;;;7.58;100.00;99892.94;5194595;28;20508;-76
2023/03/14 11:41:25;;;;;;;9.57;2.30;;;;;;;7.45;100.00;99924.97;5194530;28;20053;-76
2023/03/14 11:44:02;;;;;;;18.93;4.13;;;;;;;7.13;100.00;99927.78;5194040;28;20422;-76
2023/03/14 11:46:38;;;;;;;13.80;2.83;;;;;;;6.98;100.00;99914.75;5194826;28;20755;-75
2023/03/14 11:49:26;;;;;;;12.03;3.20;;;;;;;7.23;100.00;99925.44;5192448;28;20027;-76
2023/03/14 11:52:05;;;;;;;16.00;2.93;;;;;;;6.99;100.00;99924.25;5194463;28;20424;-76
2023/03/14 11:54:59;;;;;;;12.33;2.90;;;;;;;7.09;100.00;99926.28;5194160;28;20425;-77
2023/03/14 11:57:31;;;;;;;17.02;3.67;;;;;;;6.98;100.00;99938.16;5193468;28;20030;-76
2023/03/14 12:00:14;;;;;;;12.87;3.37;;;;;;;7.30;100.00;99959.78;5193905;28;20111;-76